• Join FlightAware (Why Join?)
  • Login
  • US Flag 
12:27AM EDT


 

Airport Tracker/Info


-or-


 

Live Flight TrackerFlight Track Log ✈ BJS542 ✈ 04-May-2013 ✈ KBED - KLUK

Flight Track Log - Related Links

Times and Time Zones

All times are in EDT time to prevent confusion due to time zone crossing. See the BJS542 flight status page for this flight to view local times or setup timezone preferences in your user account.

Time Position Orientation Groundspeed Altitude Reporting Facility
EDT Latitude Longitude Course Direction KTS MPH feet Rate Location/Type
08:55AM 42.4667 -71.2500 270° West 180 207 1,400  Level KA90
08:56AM 42.4500 -71.2500 180° South 197 227 1,900 1,320 Climbing KA90
08:57AM 42.4000 -71.2667 194° South 231 266 3,300 3,540 Climbing KA90
09:00AM 42.2967 -71.5250 242° Southwest 329 379 15,900 4,020 Climbing Boston Center
09:01AM 42.3167 -72.1359 270° West  Level FlightAware Approximate
09:01AM 42.2956 -71.6486 269° West 374 430 18,800  Level Boston Center
09:02AM 42.2964 -71.7833 271° West 382 440 21,900 3,120 Climbing Boston Center
09:03AM 42.2953 -71.9658 270° West 399 459 25,100 2,880 Climbing Boston Center
09:04AM 42.2958 -72.1231 270° West 414 476 27,700 2,340 Climbing Boston Center
09:05AM 42.2939 -72.2828 269° West 425 489 30,300 2,400 Climbing Boston Center
09:06AM 42.2942 -72.4794 270° West 432 497 33,000 2,400 Climbing Boston Center
09:07AM 42.2919 -72.6450 269° West 438 504 35,200 2,220 Climbing Boston Center
09:08AM 42.2894 -72.8078 269° West 438 504 37,500 2,100 Climbing Boston Center
09:09AM 42.2844 -72.9872 268° West 438 504 39,400 1,620 Climbing Boston Center
09:10AM 42.2711 -73.1472 264° West 438 504 40,800 1,080 Climbing Boston Center
09:11AM 42.2594 -73.3042 264° West 438 504 41,600 600 Climbing Boston Center
09:12AM 42.2500 -73.4553 265° West 432 497 42,000 420 Climbing Boston Center
09:13AM 42.2358 -73.6122 263° West 438 504 42,500 480 Climbing Boston Center
09:14AM 42.2150 -73.8053 262° West 453 521 43,000 180 Climbing Boston Center
09:15AM 42.2003 -73.9731 263° West 467 537 43,000  Level Boston Center
09:16AM 42.1808 -74.1744 263° West 467 537 43,000  Level Boston Center
09:17AM 42.1656 -74.3419 263° West 462 532 43,000  Level Boston Center
09:19AM 42.1389 -74.5831 262° West 443 510 43,000  Level New York Center
09:20AM 42.1233 -74.7469 263° West 448 516 43,000  Level New York Center
09:21AM 42.1050 -74.9164 262° West 453 521 43,000  Level New York Center
09:22AM 42.0886 -75.0856 263° West 458 527 43,000  Level New York Center
09:23AM 42.0719 -75.2522 262° West 458 527 43,000  Level New York Center
09:24AM 42.0244 -75.4081 248° West 458 527 43,000  Level New York Center
09:25AM 41.9667 -75.5519 242° Southwest 458 527 43,000  Level New York Center
09:26AM 41.9106 -75.7011 243° Southwest 458 527 43,000  Level New York Center
09:27AM 41.8744 -75.8656 254° West 453 521 43,000  Level New York Center
09:28AM 41.8383 -76.0269 253° West 453 521 43,000  Level New York Center
09:29AM 41.8042 -76.1856 254° West 453 521 43,000  Level New York Center
09:30AM 41.7672 -76.3494 253° West 453 521 43,000  Level New York Center
09:31AM 41.7306 -76.5078 253° West 453 521 43,000  Level New York Center
09:32AM 41.6939 -76.6656 253° West 453 521 43,000  Level New York Center
09:33AM 41.6539 -76.8369 253° West 453 521 43,000  Level New York Center
09:34AM 41.6189 -76.9894 253° West 448 516 43,000  Level New York Center
09:36AM 41.5272 -77.3683 252° West 452 520 43,000  Level Cleveland Center
09:37AM 41.4919 -77.5225 253° West 446 513 43,000  Level Cleveland Center
09:38AM 41.4542 -77.6794 252° West 446 513 43,000  Level Cleveland Center
09:39AM 41.4183 -77.8361 253° West 446 513 43,000  Level Cleveland Center
09:40AM 41.3803 -77.9928 252° West 446 513 43,000  Level Cleveland Center
09:41AM 41.3419 -78.1464 252° West 446 513 43,000  Level Cleveland Center
09:42AM 41.3019 -78.3194 253° West 452 520 43,000  Level Cleveland Center
09:43AM 41.2631 -78.4781 252° West 452 520 43,000  Level Cleveland Center
09:44AM 41.2242 -78.6314 251° West 447 514 43,000  Level Cleveland Center
09:45AM 41.1850 -78.7842 251° West 447 514 43,000  Level Cleveland Center
09:46AM 41.1456 -78.9425 252° West 453 521 43,000  Level Cleveland Center
09:47AM 41.1081 -79.0922 252° West 446 513 43,000  Level Cleveland Center
09:48AM 41.0683 -79.2475 251° West 446 513 43,000 -60 Level Cleveland Center
09:49AM 41.0303 -79.3994 252° West 446 513 42,900 -600 Descending Cleveland Center
09:50AM 40.9903 -79.5569 251° West 451 519 41,800 -1,080 Descending Cleveland Center
09:51AM 40.9478 -79.7144 250° West 451 519 40,800 -900 Descending Cleveland Center
09:52AM 40.9050 -79.8744 251° West 456 525 40,100 -420 Descending Cleveland Center
09:53AM 40.8622 -80.0342 251° West 456 525 40,000 -300 Descending Cleveland Center
09:54AM 40.8192 -80.1936 250° West 463 533 39,600 -720 Descending Cleveland Center
09:55AM 40.7778 -80.3472 250° West 463 533 38,600 -840 Descending Cleveland Center
09:56AM 40.7364 -80.4981 250° West 450 518 38,000 -300 Descending Cleveland Center
09:57AM 40.6967 -80.6544 252° West 450 518 38,000  Level Cleveland Center
09:58AM 40.6547 -80.8103 251° West 449 517 38,000  Level Cleveland Center
09:59AM 40.6128 -80.9686 251° West 454 522 38,000 -300 Level Cleveland Center
10:00AM 40.5683 -81.1242 249° West 459 528 37,400 -1,200 Descending Cleveland Center
10:03AM 40.4644 -81.4933 250° West 446 513 34,000 -1,020 Descending Indianapolis Center
10:04AM 40.4211 -81.6497 250° West 449 517 34,000 -60 Level Indianapolis Center
10:05AM 40.3742 -81.8119 249° West 466 536 33,900 -720 Descending Indianapolis Center
10:06AM 40.3289 -81.9733 250° West 467 537 32,600 -1,500 Descending Indianapolis Center
10:07AM 40.2847 -82.1297 250° West 455 524 30,900 -1,800 Descending Indianapolis Center
10:08AM 40.2328 -82.3047 249° West 462 532 28,900 -1,920 Descending Indianapolis Center
10:09AM 40.1864 -82.4650 249° West 467 537 27,000 -1,860 Descending Indianapolis Center
10:10AM 40.1397 -82.6194 248° West 455 524 25,200 -1,860 Descending Indianapolis Center
10:11AM 40.0808 -82.7583 241° Southwest 435 501 23,300 -1,560 Descending Indianapolis Center
10:12AM 40.0225 -82.8939 241° Southwest 426 490 22,100 -1,500 Descending Indianapolis Center
10:13AM 39.9650 -83.0317 241° Southwest 428 493 20,200 -1,980 Descending Indianapolis Center
10:14AM 39.9083 -83.1675 241° Southwest 423 487 18,100 -2,220 Descending Indianapolis Center
10:14AM 39.8872 -83.2178 241° Southwest 421 484 17,400 -1,980 Descending Indianapolis Center
10:15AM 39.8528 -83.2986 241° Southwest 411 473 16,100 -2,160 Descending Indianapolis Center
10:15AM 39.8217 -83.3756 242° Southwest 396 456 14,800 -2,220 Descending Indianapolis Center
10:16AM 39.7936 -83.4197 230° Southwest 387 445 13,900 -2,100 Descending Indianapolis Center
10:16AM 39.7556 -83.4761 229° Southwest 361 415 12,700 -2,280 Descending Indianapolis Center
10:17AM 39.7239 -83.5231 229° Southwest 367 422 11,600 -2,040 Descending Indianapolis Center
10:17AM 39.6900 -83.5739 229° Southwest 353 406 10,700 -1,200 Descending Indianapolis Center
10:18AM 39.6603 -83.6158 227° Southwest 347 399 10,400 -1,320 Descending Indianapolis Center
10:19AM 39.6069 -83.6931 228° Southwest 297 342 8,600 -1,920 Descending Indianapolis Center
10:20AM 39.5461 -83.7808 228° Southwest 282 325 6,500 -1,800 Descending Indianapolis Center
10:21AM 39.4956 -83.8539 228° Southwest 276 318 4,900 -1,260 Descending Indianapolis Center
10:22AM 39.4461 -83.9258 228° Southwest 269 310 4,000 -480 Descending Indianapolis Center
10:23AM 39.3978 -83.9964 228° Southwest 264 304 4,000  Level Indianapolis Center
10:24AM 39.3500 -84.0656 228° Southwest 259 298 4,000  Level Indianapolis Center
10:25AM 39.3033 -84.1328 228° Southwest 254 292 4,000  Level Indianapolis Center
10:26AM 39.2558 -84.1994 227° Southwest 251 289 4,000  Level Indianapolis Center
10:27AM 39.2008 -84.2517 216° Southwest 246 283 4,000 -540 Level Indianapolis Center
10:28AM 39.1417 -84.2950 210° Southwest 244 281 2,900 -720 Descending Indianapolis Center
10:30AM 39.0500 -84.3833 217° Southwest 172 198 2,100 -600 Descending Cincinnati TRACON
10:31AM 39.0667 -84.4167 303° West 153 176 1,300 -840 Descending Cincinnati TRACON
10:33AM 39.1033 -84.4186 358° North  Level Estimated
10:40AM 39.1033 -84.4186 345° North  Level Estimated